sensor_id;sensor_type;location;lat;lon;timestamp;P1;durP1;ratioP1;P2;durP2;ratioP2
22733;SDS011;11534;51.994;5.692;2023-06-22T00:00:52;2.10;;;1.02;;
22733;SDS011;11534;51.994;5.692;2023-06-22T00:03:19;0.30;;;0.30;;
22733;SDS011;11534;51.994;5.692;2023-06-22T00:05:46;0.20;;;0.20;;
22733;SDS011;11534;51.994;5.692;2023-06-22T00:08:13;0.63;;;0.63;;
22733;SDS011;11534;51.994;5.692;2023-06-22T00:10:39;0.55;;;0.52;;
22733;SDS011;11534;51.994;5.692;2023-06-22T00:13:05;0.40;;;0.40;;
22733;SDS011;11534;51.994;5.692;2023-06-22T00:15:32;0.38;;;0.30;;
22733;SDS011;11534;51.994;5.692;2023-06-22T00:17:58;0.40;;;0.30;;
22733;SDS011;11534;51.994;5.692;2023-06-22T00:20:24;0.35;;;0.35;;
22733;SDS011;11534;51.994;5.692;2023-06-22T00:22:53;0.30;;;0.30;;
22733;SDS011;11534;51.994;5.692;2023-06-22T00:25:22;0.65;;;0.50;;
22733;SDS011;11534;51.994;5.692;2023-06-22T00:27:48;0.65;;;0.50;;
22733;SDS011;11534;51.994;5.692;2023-06-22T00:30:15;0.30;;;0.30;;
22733;SDS011;11534;51.994;5.692;2023-06-22T00:32:42;0.30;;;0.30;;
22733;SDS011;11534;51.994;5.692;2023-06-22T00:35:08;0.40;;;0.40;;
22733;SDS011;11534;51.994;5.692;2023-06-22T00:37:35;0.43;;;0.43;;
22733;SDS011;11534;51.994;5.692;2023-06-22T00:40:02;0.20;;;0.20;;
22733;SDS011;11534;51.994;5.692;2023-06-22T00:42:28;0.28;;;0.28;;
22733;SDS011;11534;51.994;5.692;2023-06-22T00:44:54;0.30;;;0.30;;
22733;SDS011;11534;51.994;5.692;2023-06-22T00:47:20;0.45;;;0.40;;
22733;SDS011;11534;51.994;5.692;2023-06-22T00:49:47;0.20;;;0.20;;
22733;SDS011;11534;51.994;5.692;2023-06-22T00:52:16;0.93;;;0.40;;
22733;SDS011;11534;51.994;5.692;2023-06-22T00:54:46;0.30;;;0.30;;
22733;SDS011;11534;51.994;5.692;2023-06-22T00:57:15;0.50;;;0.40;;
22733;SDS011;11534;51.994;5.692;2023-06-22T00:59:43;0.32;;;0.32;;
22733;SDS011;11534;51.994;5.692;2023-06-22T01:02:09;0.32;;;0.32;;
22733;SDS011;11534;51.994;5.692;2023-06-22T01:04:36;0.20;;;0.20;;
22733;SDS011;11534;51.994;5.692;2023-06-22T01:07:05;0.30;;;0.30;;
22733;SDS011;11534;51.994;5.692;2023-06-22T01:10:35;0.40;;;0.40;;
22733;SDS011;11534;51.994;5.692;2023-06-22T01:12:40;0.38;;;0.35;;
22733;SDS011;11534;51.994;5.692;2023-06-22T01:15:11;0.50;;;0.50;;
22733;SDS011;11534;51.994;5.692;2023-06-22T01:17:44;0.17;;;0.17;;
22733;SDS011;11534;51.994;5.692;2023-06-22T01:20:10;0.30;;;0.30;;
22733;SDS011;11534;51.994;5.692;2023-06-22T01:23:03;0.40;;;0.40;;
22733;SDS011;11534;51.994;5.692;2023-06-22T01:30:56;0.38;;;0.38;;
22733;SDS011;11534;51.994;5.692;2023-06-22T01:33:32;0.45;;;0.43;;
22733;SDS011;11534;51.994;5.692;2023-06-22T01:36:00;1.15;;;0.30;;
22733;SDS011;11534;51.994;5.692;2023-06-22T01:38:28;0.35;;;0.32;;
22733;SDS011;11534;51.994;5.692;2023-06-22T01:40:55;0.22;;;0.22;;
22733;SDS011;11534;51.994;5.692;2023-06-22T01:43:26;0.25;;;0.25;;
22733;SDS011;11534;51.994;5.692;2023-06-22T01:45:54;0.35;;;0.35;;
22733;SDS011;11534;51.994;5.692;2023-06-22T01:48:20;0.25;;;0.25;;
22733;SDS011;11534;51.994;5.692;2023-06-22T01:50:47;0.28;;;0.20;;
22733;SDS011;11534;51.994;5.692;2023-06-22T01:53:13;0.25;;;0.25;;
22733;SDS011;11534;51.994;5.692;2023-06-22T01:55:38;0.50;;;0.38;;
22733;SDS011;11534;51.994;5.692;2023-06-22T01:58:04;0.40;;;0.40;;
22733;SDS011;11534;51.994;5.692;2023-06-22T02:00:31;1.17;;;0.68;;
22733;SDS011;11534;51.994;5.692;2023-06-22T02:06:24;0.28;;;0.25;;
22733;SDS011;11534;51.994;5.692;2023-06-22T02:08:57;0.25;;;0.25;;
22733;SDS011;11534;51.994;5.692;2023-06-22T02:11:26;0.70;;;0.52;;
22733;SDS011;11534;51.994;5.692;2023-06-22T02:13:53;0.38;;;0.30;;
22733;SDS011;11534;51.994;5.692;2023-06-22T02:16:20;0.80;;;0.52;;
22733;SDS011;11534;51.994;5.692;2023-06-22T02:18:49;0.32;;;0.32;;
22733;SDS011;11534;51.994;5.692;2023-06-22T02:21:16;0.47;;;0.40;;
22733;SDS011;11534;51.994;5.692;2023-06-22T02:23:42;0.30;;;0.30;;
22733;SDS011;11534;51.994;5.692;2023-06-22T02:26:08;0.38;;;0.35;;
22733;SDS011;11534;51.994;5.692;2023-06-22T02:28:34;0.30;;;0.30;;
22733;SDS011;11534;51.994;5.692;2023-06-22T02:31:00;0.30;;;0.30;;
22733;SDS011;11534;51.994;5.692;2023-06-22T02:33:25;0.57;;;0.50;;
22733;SDS011;11534;51.994;5.692;2023-06-22T02:35:52;0.22;;;0.22;;
22733;SDS011;11534;51.994;5.692;2023-06-22T02:38:18;0.50;;;0.50;;
22733;SDS011;11534;51.994;5.692;2023-06-22T02:40:45;0.20;;;0.20;;
22733;SDS011;11534;51.994;5.692;2023-06-22T02:43:11;0.35;;;0.30;;
22733;SDS011;11534;51.994;5.692;2023-06-22T02:45:37;0.30;;;0.30;;
22733;SDS011;11534;51.994;5.692;2023-06-22T02:48:02;0.30;;;0.30;;
22733;SDS011;11534;51.994;5.692;2023-06-22T02:50:28;0.25;;;0.25;;
22733;SDS011;11534;51.994;5.692;2023-06-22T02:52:54;0.38;;;0.38;;
22733;SDS011;11534;51.994;5.692;2023-06-22T02:55:19;0.20;;;0.20;;
22733;SDS011;11534;51.994;5.692;2023-06-22T02:57:45;1.33;;;0.68;;
22733;SDS011;11534;51.994;5.692;2023-06-22T03:00:13;0.57;;;0.50;;
22733;SDS011;11534;51.994;5.692;2023-06-22T03:02:46;0.45;;;0.30;;
22733;SDS011;11534;51.994;5.692;2023-06-22T03:05:13;0.47;;;0.43;;
22733;SDS011;11534;51.994;5.692;2023-06-22T03:07:43;0.38;;;0.38;;
22733;SDS011;11534;51.994;5.692;2023-06-22T03:10:10;0.60;;;0.55;;
22733;SDS011;11534;51.994;5.692;2023-06-22T03:12:37;0.60;;;0.60;;
22733;SDS011;11534;51.994;5.692;2023-06-22T03:15:06;0.30;;;0.30;;
22733;SDS011;11534;51.994;5.692;2023-06-22T03:17:34;0.65;;;0.65;;
22733;SDS011;11534;51.994;5.692;2023-06-22T03:20:01;0.50;;;0.50;;
22733;SDS011;11534;51.994;5.692;2023-06-22T03:22:33;0.57;;;0.57;;
22733;SDS011;11534;51.994;5.692;2023-06-22T03:25:06;0.30;;;0.30;;
22733;SDS011;11534;51.994;5.692;2023-06-22T03:27:36;0.45;;;0.45;;
22733;SDS011;11534;51.994;5.692;2023-06-22T03:30:02;0.60;;;0.60;;
22733;SDS011;11534;51.994;5.692;2023-06-22T03:32:28;0.65;;;0.50;;
22733;SDS011;11534;51.994;5.692;2023-06-22T03:34:54;0.40;;;0.40;;
22733;SDS011;11534;51.994;5.692;2023-06-22T03:37:19;0.28;;;0.28;;
22733;SDS011;11534;51.994;5.692;2023-06-22T03:39:45;0.60;;;0.60;;
22733;SDS011;11534;51.994;5.692;2023-06-22T03:42:10;0.63;;;0.60;;
22733;SDS011;11534;51.994;5.692;2023-06-22T03:44:36;0.50;;;0.40;;
22733;SDS011;11534;51.994;5.692;2023-06-22T03:47:05;0.32;;;0.30;;
22733;SDS011;11534;51.994;5.692;2023-06-22T03:49:32;0.17;;;0.17;;
22733;SDS011;11534;51.994;5.692;2023-06-22T03:51:59;0.28;;;0.28;;
22733;SDS011;11534;51.994;5.692;2023-06-22T03:54:25;0.52;;;0.40;;
22733;SDS011;11534;51.994;5.692;2023-06-22T03:56:51;0.65;;;0.50;;
22733;SDS011;11534;51.994;5.692;2023-06-22T03:59:17;0.52;;;0.38;;
22733;SDS011;11534;51.994;5.692;2023-06-22T04:01:42;0.20;;;0.20;;
22733;SDS011;11534;51.994;5.692;2023-06-22T04:04:08;0.63;;;0.57;;
22733;SDS011;11534;51.994;5.692;2023-06-22T04:06:34;0.75;;;0.50;;
22733;SDS011;11534;51.994;5.692;2023-06-22T04:08:59;0.63;;;0.63;;
22733;SDS011;11534;51.994;5.692;2023-06-22T04:11:25;0.52;;;0.52;;
22733;SDS011;11534;51.994;5.692;2023-06-22T04:13:51;0.55;;;0.40;;
22733;SDS011;11534;51.994;5.692;2023-06-22T04:16:17;0.75;;;0.70;;
22733;SDS011;11534;51.994;5.692;2023-06-22T04:18:42;0.65;;;0.57;;
22733;SDS011;11534;51.994;5.692;2023-06-22T04:21:09;0.60;;;0.60;;
22733;SDS011;11534;51.994;5.692;2023-06-22T04:23:35;0.50;;;0.50;;
22733;SDS011;11534;51.994;5.692;2023-06-22T04:26:01;0.28;;;0.28;;
22733;SDS011;11534;51.994;5.692;2023-06-22T04:28:27;0.43;;;0.43;;
22733;SDS011;11534;51.994;5.692;2023-06-22T04:30:52;0.30;;;0.30;;
22733;SDS011;11534;51.994;5.692;2023-06-22T04:33:22;0.50;;;0.50;;
22733;SDS011;11534;51.994;5.692;2023-06-22T04:35:48;0.40;;;0.40;;
22733;SDS011;11534;51.994;5.692;2023-06-22T04:38:13;0.30;;;0.30;;
22733;SDS011;11534;51.994;5.692;2023-06-22T04:40:39;0.32;;;0.32;;
22733;SDS011;11534;51.994;5.692;2023-06-22T04:43:05;0.55;;;0.55;;
22733;SDS011;11534;51.994;5.692;2023-06-22T04:45:31;1.42;;;0.70;;
22733;SDS011;11534;51.994;5.692;2023-06-22T04:47:58;0.60;;;0.60;;
22733;SDS011;11534;51.994;5.692;2023-06-22T04:50:24;0.77;;;0.70;;
22733;SDS011;11534;51.994;5.692;2023-06-22T04:52:50;0.90;;;0.77;;
22733;SDS011;11534;51.994;5.692;2023-06-22T04:55:16;0.57;;;0.57;;
22733;SDS011;11534;51.994;5.692;2023-06-22T04:57:46;0.50;;;0.50;;
22733;SDS011;11534;51.994;5.692;2023-06-22T05:00:19;1.38;;;1.05;;
22733;SDS011;11534;51.994;5.692;2023-06-22T05:02:48;0.65;;;0.52;;
22733;SDS011;11534;51.994;5.692;2023-06-22T05:05:14;0.60;;;0.60;;
22733;SDS011;11534;51.994;5.692;2023-06-22T05:07:44;1.65;;;1.30;;
22733;SDS011;11534;51.994;5.692;2023-06-22T05:10:13;1.45;;;0.82;;
22733;SDS011;11534;51.994;5.692;2023-06-22T05:12:40;1.95;;;1.65;;
22733;SDS011;11534;51.994;5.692;2023-06-22T05:15:07;0.75;;;0.65;;
22733;SDS011;11534;51.994;5.692;2023-06-22T05:17:33;1.05;;;0.90;;
22733;SDS011;11534;51.994;5.692;2023-06-22T05:20:00;1.08;;;1.02;;
22733;SDS011;11534;51.994;5.692;2023-06-22T05:22:27;1.25;;;0.93;;
22733;SDS011;11534;51.994;5.692;2023-06-22T05:24:52;1.10;;;1.02;;
22733;SDS011;11534;51.994;5.692;2023-06-22T05:27:18;0.98;;;0.93;;
22733;SDS011;11534;51.994;5.692;2023-06-22T05:29:44;0.75;;;0.75;;
22733;SDS011;11534;51.994;5.692;2023-06-22T05:32:09;1.17;;;1.08;;
22733;SDS011;11534;51.994;5.692;2023-06-22T05:34:35;1.02;;;0.82;;
22733;SDS011;11534;51.994;5.692;2023-06-22T05:37:02;1.20;;;1.10;;
22733;SDS011;11534;51.994;5.692;2023-06-22T05:39:27;0.80;;;0.80;;
22733;SDS011;11534;51.994;5.692;2023-06-22T05:41:53;1.40;;;1.30;;
22733;SDS011;11534;51.994;5.692;2023-06-22T05:44:19;1.23;;;1.13;;
22733;SDS011;11534;51.994;5.692;2023-06-22T05:46:45;1.10;;;1.00;;
22733;SDS011;11534;51.994;5.692;2023-06-22T05:49:12;1.33;;;1.13;;
22733;SDS011;11534;51.994;5.692;2023-06-22T05:51:38;1.75;;;1.20;;
22733;SDS011;11534;51.994;5.692;2023-06-22T05:54:04;1.13;;;1.00;;
22733;SDS011;11534;51.994;5.692;2023-06-22T05:56:30;1.13;;;1.02;;
22733;SDS011;11534;51.994;5.692;2023-06-22T05:58:55;1.63;;;1.42;;
22733;SDS011;11534;51.994;5.692;2023-06-22T06:01:21;0.75;;;0.73;;
22733;SDS011;11534;51.994;5.692;2023-06-22T06:03:47;1.42;;;1.33;;
22733;SDS011;11534;51.994;5.692;2023-06-22T06:06:14;1.48;;;1.38;;
22733;SDS011;11534;51.994;5.692;2023-06-22T06:08:40;0.63;;;0.63;;
22733;SDS011;11534;51.994;5.692;2023-06-22T06:11:06;0.75;;;0.75;;
22733;SDS011;11534;51.994;5.692;2023-06-22T06:13:32;0.93;;;0.82;;
22733;SDS011;11534;51.994;5.692;2023-06-22T06:15:58;1.23;;;1.13;;
22733;SDS011;11534;51.994;5.692;2023-06-22T06:18:24;1.20;;;1.05;;
22733;SDS011;11534;51.994;5.692;2023-06-22T06:20:50;0.82;;;0.82;;
22733;SDS011;11534;51.994;5.692;2023-06-22T06:23:16;1.42;;;1.13;;
22733;SDS011;11534;51.994;5.692;2023-06-22T06:25:41;1.13;;;1.02;;
22733;SDS011;11534;51.994;5.692;2023-06-22T06:28:07;3.30;;;2.22;;
22733;SDS011;11534;51.994;5.692;2023-06-22T06:30:33;0.88;;;0.75;;
22733;SDS011;11534;51.994;5.692;2023-06-22T06:32:59;1.05;;;0.90;;
22733;SDS011;11534;51.994;5.692;2023-06-22T06:35:25;1.45;;;1.35;;
22733;SDS011;11534;51.994;5.692;2023-06-22T06:37:51;1.13;;;0.90;;
22733;SDS011;11534;51.994;5.692;2023-06-22T06:40:17;0.88;;;0.75;;
22733;SDS011;11534;51.994;5.692;2023-06-22T06:42:44;1.33;;;1.23;;
22733;SDS011;11534;51.994;5.692;2023-06-22T06:45:16;0.93;;;0.93;;
22733;SDS011;11534;51.994;5.692;2023-06-22T06:47:43;1.33;;;0.95;;
22733;SDS011;11534;51.994;5.692;2023-06-22T06:50:09;1.33;;;1.23;;
22733;SDS011;11534;51.994;5.692;2023-06-22T06:52:35;0.82;;;0.80;;
22733;SDS011;11534;51.994;5.692;2023-06-22T06:55:01;0.95;;;0.90;;
22733;SDS011;11534;51.994;5.692;2023-06-22T06:57:29;0.32;;;0.32;;
22733;SDS011;11534;51.994;5.692;2023-06-22T06:59:58;1.00;;;0.95;;
22733;SDS011;11534;51.994;5.692;2023-06-22T07:02:24;0.68;;;0.63;;
22733;SDS011;11534;51.994;5.692;2023-06-22T07:04:51;0.77;;;0.75;;
22733;SDS011;11534;51.994;5.692;2023-06-22T07:07:16;1.45;;;0.80;;
22733;SDS011;11534;51.994;5.692;2023-06-22T07:09:42;0.60;;;0.52;;
22733;SDS011;11534;51.994;5.692;2023-06-22T07:12:08;1.20;;;1.10;;
22733;SDS011;11534;51.994;5.692;2023-06-22T07:14:33;0.65;;;0.60;;
22733;SDS011;11534;51.994;5.692;2023-06-22T07:16:59;1.15;;;0.98;;
22733;SDS011;11534;51.994;5.692;2023-06-22T07:19:25;0.77;;;0.68;;
22733;SDS011;11534;51.994;5.692;2023-06-22T07:21:52;1.00;;;0.88;;
22733;SDS011;11534;51.994;5.692;2023-06-22T07:24:19;1.17;;;1.00;;
22733;SDS011;11534;51.994;5.692;2023-06-22T07:26:48;0.50;;;0.50;;
22733;SDS011;11534;51.994;5.692;2023-06-22T07:29:18;1.35;;;1.20;;
22733;SDS011;11534;51.994;5.692;2023-06-22T07:31:48;1.52;;;1.17;;
22733;SDS011;11534;51.994;5.692;2023-06-22T07:34:16;1.52;;;1.42;;
22733;SDS011;11534;51.994;5.692;2023-06-22T07:36:43;1.42;;;0.68;;
22733;SDS011;11534;51.994;5.692;2023-06-22T07:39:09;0.55;;;0.52;;
22733;SDS011;11534;51.994;5.692;2023-06-22T07:41:34;0.65;;;0.65;;
22733;SDS011;11534;51.994;5.692;2023-06-22T07:44:02;2.20;;;1.20;;
22733;SDS011;11534;51.994;5.692;2023-06-22T07:46:28;0.70;;;0.68;;
22733;SDS011;11534;51.994;5.692;2023-06-22T07:48:55;1.10;;;1.00;;
22733;SDS011;11534;51.994;5.692;2023-06-22T07:51:25;1.00;;;0.85;;
22733;SDS011;11534;51.994;5.692;2023-06-22T07:53:51;0.60;;;0.50;;
22733;SDS011;11534;51.994;5.692;2023-06-22T07:56:17;0.47;;;0.40;;
22733;SDS011;11534;51.994;5.692;2023-06-22T07:58:46;0.38;;;0.38;;
22733;SDS011;11534;51.994;5.692;2023-06-22T08:01:19;0.90;;;0.70;;
22733;SDS011;11534;51.994;5.692;2023-06-22T08:03:48;0.52;;;0.52;;
22733;SDS011;11534;51.994;5.692;2023-06-22T08:06:14;0.90;;;0.80;;
22733;SDS011;11534;51.994;5.692;2023-06-22T08:08:40;0.80;;;0.68;;
22733;SDS011;11534;51.994;5.692;2023-06-22T08:11:07;1.15;;;0.80;;
22733;SDS011;11534;51.994;5.692;2023-06-22T08:13:33;0.88;;;0.63;;
22733;SDS011;11534;51.994;5.692;2023-06-22T08:15:59;0.73;;;0.68;;
22733;SDS011;11534;51.994;5.692;2023-06-22T08:18:24;1.00;;;0.80;;
22733;SDS011;11534;51.994;5.692;2023-06-22T08:20:50;0.52;;;0.50;;
22733;SDS011;11534;51.994;5.692;2023-06-22T08:23:16;1.17;;;0.90;;
22733;SDS011;11534;51.994;5.692;2023-06-22T08:25:42;0.77;;;0.77;;
22733;SDS011;11534;51.994;5.692;2023-06-22T08:38:27;0.45;;;0.45;;
22733;SDS011;11534;51.994;5.692;2023-06-22T08:40:53;0.65;;;0.65;;
22733;SDS011;11534;51.994;5.692;2023-06-22T08:43:18;0.50;;;0.50;;
22733;SDS011;11534;51.994;5.692;2023-06-22T08:45:44;0.70;;;0.70;;
22733;SDS011;11534;51.994;5.692;2023-06-22T08:48:10;0.50;;;0.50;;
22733;SDS011;11534;51.994;5.692;2023-06-22T08:50:36;1.30;;;1.20;;
22733;SDS011;11534;51.994;5.692;2023-06-22T08:53:01;0.95;;;0.85;;
22733;SDS011;11534;51.994;5.692;2023-06-22T08:55:27;0.88;;;0.85;;
22733;SDS011;11534;51.994;5.692;2023-06-22T08:57:53;0.35;;;0.35;;
22733;SDS011;11534;51.994;5.692;2023-06-22T09:00:18;0.88;;;0.70;;
22733;SDS011;11534;51.994;5.692;2023-06-22T09:02:45;0.80;;;0.80;;
22733;SDS011;11534;51.994;5.692;2023-06-22T09:05:12;0.75;;;0.65;;
22733;SDS011;11534;51.994;5.692;2023-06-22T09:07:38;0.60;;;0.52;;
22733;SDS011;11534;51.994;5.692;2023-06-22T09:10:04;1.08;;;0.82;;
22733;SDS011;11534;51.994;5.692;2023-06-22T09:12:30;0.68;;;0.68;;
22733;SDS011;11534;51.994;5.692;2023-06-22T09:14:57;0.98;;;0.80;;
22733;SDS011;11534;51.994;5.692;2023-06-22T09:17:25;1.05;;;0.77;;
22733;SDS011;11534;51.994;5.692;2023-06-22T09:19:51;0.70;;;0.63;;
22733;SDS011;11534;51.994;5.692;2023-06-22T09:22:16;0.77;;;0.52;;
22733;SDS011;11534;51.994;5.692;2023-06-22T09:24:42;0.70;;;0.70;;
22733;SDS011;11534;51.994;5.692;2023-06-22T09:27:08;0.45;;;0.45;;
22733;SDS011;11534;51.994;5.692;2023-06-22T09:29:33;0.88;;;0.63;;
22733;SDS011;11534;51.994;5.692;2023-06-22T09:31:59;0.85;;;0.63;;
22733;SDS011;11534;51.994;5.692;2023-06-22T09:34:25;0.40;;;0.40;;
22733;SDS011;11534;51.994;5.692;2023-06-22T09:36:51;0.75;;;0.55;;
22733;SDS011;11534;51.994;5.692;2023-06-22T09:39:17;0.60;;;0.45;;
22733;SDS011;11534;51.994;5.692;2023-06-22T09:41:43;0.82;;;0.60;;
22733;SDS011;11534;51.994;5.692;2023-06-22T09:44:09;0.40;;;0.40;;
22733;SDS011;11534;51.994;5.692;2023-06-22T09:46:36;0.55;;;0.55;;
22733;SDS011;11534;51.994;5.692;2023-06-22T09:49:02;1.23;;;0.65;;
22733;SDS011;11534;51.994;5.692;2023-06-22T09:51:27;0.63;;;0.63;;
22733;SDS011;11534;51.994;5.692;2023-06-22T09:53:53;0.40;;;0.40;;
22733;SDS011;11534;51.994;5.692;2023-06-22T09:56:19;0.77;;;0.50;;
22733;SDS011;11534;51.994;5.692;2023-06-22T09:58:45;0.43;;;0.43;;
22733;SDS011;11534;51.994;5.692;2023-06-22T10:01:12;1.83;;;0.75;;
22733;SDS011;11534;51.994;5.692;2023-06-22T10:03:40;0.60;;;0.50;;
22733;SDS011;11534;51.994;5.692;2023-06-22T10:06:06;0.60;;;0.60;;
22733;SDS011;11534;51.994;5.692;2023-06-22T10:08:33;0.60;;;0.40;;
22733;SDS011;11534;51.994;5.692;2023-06-22T10:10:59;0.75;;;0.57;;
22733;SDS011;11534;51.994;5.692;2023-06-22T10:13:25;0.38;;;0.38;;
22733;SDS011;11534;51.994;5.692;2023-06-22T10:15:50;0.45;;;0.45;;
22733;SDS011;11534;51.994;5.692;2023-06-22T10:18:20;0.63;;;0.55;;
22733;SDS011;11534;51.994;5.692;2023-06-22T10:20:49;1.00;;;0.88;;
22733;SDS011;11534;51.994;5.692;2023-06-22T10:23:21;1.25;;;1.15;;
22733;SDS011;11534;51.994;5.692;2023-06-22T10:25:47;0.60;;;0.60;;
22733;SDS011;11534;51.994;5.692;2023-06-22T10:28:13;0.85;;;0.57;;
22733;SDS011;11534;51.994;5.692;2023-06-22T10:30:39;0.30;;;0.30;;
22733;SDS011;11534;51.994;5.692;2023-06-22T10:33:09;0.77;;;0.60;;
22733;SDS011;11534;51.994;5.692;2023-06-22T10:35:35;0.65;;;0.60;;
22733;SDS011;11534;51.994;5.692;2023-06-22T10:38:04;0.65;;;0.60;;
22733;SDS011;11534;51.994;5.692;2023-06-22T10:40:31;0.47;;;0.47;;
22733;SDS011;11534;51.994;5.692;2023-06-22T10:42:56;1.25;;;0.70;;
22733;SDS011;11534;51.994;5.692;2023-06-22T10:45:22;0.57;;;0.57;;
22733;SDS011;11534;51.994;5.692;2023-06-22T10:47:48;0.47;;;0.47;;
22733;SDS011;11534;51.994;5.692;2023-06-22T10:50:13;0.80;;;0.80;;
22733;SDS011;11534;51.994;5.692;2023-06-22T10:52:39;1.23;;;0.80;;
22733;SDS011;11534;51.994;5.692;2023-06-22T10:55:06;0.73;;;0.70;;
22733;SDS011;11534;51.994;5.692;2023-06-22T11:07:52;0.70;;;0.60;;
22733;SDS011;11534;51.994;5.692;2023-06-22T11:10:18;0.80;;;0.80;;
22733;SDS011;11534;51.994;5.692;2023-06-22T11:12:43;0.93;;;0.77;;
22733;SDS011;11534;51.994;5.692;2023-06-22T11:15:09;0.80;;;0.73;;
22733;SDS011;11534;51.994;5.692;2023-06-22T11:17:35;0.73;;;0.52;;
22733;SDS011;11534;51.994;5.692;2023-06-22T11:30:20;1.20;;;1.10;;
22733;SDS011;11534;51.994;5.692;2023-06-22T11:32:46;0.63;;;0.60;;
22733;SDS011;11534;51.994;5.692;2023-06-22T11:35:11;0.70;;;0.68;;
22733;SDS011;11534;51.994;5.692;2023-06-22T11:37:40;1.38;;;0.95;;
22733;SDS011;11534;51.994;5.692;2023-06-22T11:40:07;0.93;;;0.80;;
22733;SDS011;11534;51.994;5.692;2023-06-22T11:42:34;0.63;;;0.60;;
22733;SDS011;11534;51.994;5.692;2023-06-22T11:45:00;0.60;;;0.60;;
22733;SDS011;11534;51.994;5.692;2023-06-22T11:47:25;1.10;;;1.00;;
22733;SDS011;11534;51.994;5.692;2023-06-22T11:49:51;0.73;;;0.73;;
22733;SDS011;11534;51.994;5.692;2023-06-22T11:52:17;0.80;;;0.80;;
22733;SDS011;11534;51.994;5.692;2023-06-22T11:54:43;1.58;;;1.15;;
22733;SDS011;11534;51.994;5.692;2023-06-22T11:57:08;1.13;;;0.73;;
22733;SDS011;11534;51.994;5.692;2023-06-22T11:59:34;0.90;;;0.90;;
22733;SDS011;11534;51.994;5.692;2023-06-22T12:02:00;1.55;;;1.13;;
22733;SDS011;11534;51.994;5.692;2023-06-22T12:04:25;1.00;;;0.90;;
22733;SDS011;11534;51.994;5.692;2023-06-22T12:06:51;1.27;;;1.05;;
22733;SDS011;11534;51.994;5.692;2023-06-22T12:09:18;1.27;;;1.17;;
22733;SDS011;11534;51.994;5.692;2023-06-22T12:11:44;1.05;;;0.95;;
22733;SDS011;11534;51.994;5.692;2023-06-22T12:14:09;0.68;;;0.68;;
22733;SDS011;11534;51.994;5.692;2023-06-22T12:16:35;0.98;;;0.88;;
22733;SDS011;11534;51.994;5.692;2023-06-22T12:19:01;0.90;;;0.90;;
22733;SDS011;11534;51.994;5.692;2023-06-22T12:21:26;1.30;;;1.20;;
22733;SDS011;11534;51.994;5.692;2023-06-22T12:23:53;0.77;;;0.77;;
22733;SDS011;11534;51.994;5.692;2023-06-22T12:26:18;0.88;;;0.88;;
22733;SDS011;11534;51.994;5.692;2023-06-22T12:28:44;1.92;;;1.40;;
22733;SDS011;11534;51.994;5.692;2023-06-22T12:31:09;1.48;;;1.33;;
22733;SDS011;11534;51.994;5.692;2023-06-22T12:33:35;1.45;;;1.35;;
22733;SDS011;11534;51.994;5.692;2023-06-22T12:36:01;2.05;;;1.30;;
22733;SDS011;11534;51.994;5.692;2023-06-22T12:38:27;1.10;;;1.00;;
22733;SDS011;11534;51.994;5.692;2023-06-22T12:40:52;1.17;;;1.00;;
22733;SDS011;11534;51.994;5.692;2023-06-22T12:43:18;1.27;;;1.17;;
22733;SDS011;11534;51.994;5.692;2023-06-22T12:45:44;1.20;;;1.10;;
22733;SDS011;11534;51.994;5.692;2023-06-22T12:48:09;2.30;;;2.10;;
22733;SDS011;11534;51.994;5.692;2023-06-22T12:50:35;1.25;;;1.15;;
22733;SDS011;11534;51.994;5.692;2023-06-22T12:53:06;1.33;;;1.23;;
22733;SDS011;11534;51.994;5.692;2023-06-22T12:55:32;1.02;;;0.93;;
22733;SDS011;11534;51.994;5.692;2023-06-22T12:57:58;2.15;;;1.10;;
22733;SDS011;11534;51.994;5.692;2023-06-22T13:00:23;1.65;;;1.55;;
22733;SDS011;11534;51.994;5.692;2023-06-22T13:02:49;1.05;;;0.95;;
22733;SDS011;11534;51.994;5.692;2023-06-22T13:05:15;1.13;;;1.02;;
22733;SDS011;11534;51.994;5.692;2023-06-22T13:07:40;1.27;;;1.08;;
22733;SDS011;11534;51.994;5.692;2023-06-22T13:10:07;1.40;;;1.30;;
22733;SDS011;11534;51.994;5.692;2023-06-22T13:12:33;1.15;;;1.05;;
22733;SDS011;11534;51.994;5.692;2023-06-22T13:14:59;1.05;;;0.98;;
22733;SDS011;11534;51.994;5.692;2023-06-22T13:17:25;1.45;;;1.35;;
22733;SDS011;11534;51.994;5.692;2023-06-22T13:19:50;1.20;;;1.10;;
22733;SDS011;11534;51.994;5.692;2023-06-22T13:22:32;1.45;;;1.35;;
22733;SDS011;11534;51.994;5.692;2023-06-22T13:25:06;1.67;;;0.98;;
22733;SDS011;11534;51.994;5.692;2023-06-22T13:27:32;1.40;;;1.30;;
22733;SDS011;11534;51.994;5.692;2023-06-22T13:29:58;1.38;;;1.27;;
22733;SDS011;11534;51.994;5.692;2023-06-22T13:32:23;1.33;;;1.23;;
22733;SDS011;11534;51.994;5.692;2023-06-22T13:34:49;1.90;;;1.75;;
22733;SDS011;11534;51.994;5.692;2023-06-22T13:37:15;1.23;;;1.13;;
22733;SDS011;11534;51.994;5.692;2023-06-22T13:39:41;1.45;;;1.33;;
22733;SDS011;11534;51.994;5.692;2023-06-22T13:42:07;1.65;;;1.40;;
22733;SDS011;11534;51.994;5.692;2023-06-22T13:44:33;0.95;;;0.82;;
22733;SDS011;11534;51.994;5.692;2023-06-22T13:46:59;1.60;;;1.10;;
22733;SDS011;11534;51.994;5.692;2023-06-22T13:49:25;1.75;;;1.42;;
22733;SDS011;11534;51.994;5.692;2023-06-22T13:51:51;2.00;;;1.23;;
22733;SDS011;11534;51.994;5.692;2023-06-22T13:54:17;1.30;;;1.20;;
22733;SDS011;11534;51.994;5.692;2023-06-22T13:56:42;1.40;;;0.95;;
22733;SDS011;11534;51.994;5.692;2023-06-22T13:59:08;1.90;;;1.70;;
22733;SDS011;11534;51.994;5.692;2023-06-22T14:01:36;1.92;;;1.63;;
22733;SDS011;11534;51.994;5.692;2023-06-22T14:04:03;1.58;;;1.33;;
22733;SDS011;11534;51.994;5.692;2023-06-22T14:06:29;1.00;;;0.95;;
22733;SDS011;11534;51.994;5.692;2023-06-22T14:08:55;1.67;;;1.58;;
22733;SDS011;11534;51.994;5.692;2023-06-22T14:11:21;1.60;;;1.50;;
22733;SDS011;11534;51.994;5.692;2023-06-22T14:13:46;2.10;;;1.60;;
22733;SDS011;11534;51.994;5.692;2023-06-22T14:16:12;1.77;;;1.40;;
22733;SDS011;11534;51.994;5.692;2023-06-22T14:18:38;2.33;;;1.63;;
22733;SDS011;11534;51.994;5.692;2023-06-22T14:21:03;7.05;;;3.20;;
22733;SDS011;11534;51.994;5.692;2023-06-22T14:23:29;1.90;;;1.70;;
22733;SDS011;11534;51.994;5.692;2023-06-22T14:41:25;1.33;;;1.02;;
22733;SDS011;11534;51.994;5.692;2023-06-22T14:43:51;1.50;;;1.27;;
22733;SDS011;11534;51.994;5.692;2023-06-22T14:46:19;1.42;;;1.33;;
22733;SDS011;11534;51.994;5.692;2023-06-22T14:48:45;1.73;;;1.35;;
22733;SDS011;11534;51.994;5.692;2023-06-22T14:51:11;1.33;;;1.23;;
22733;SDS011;11534;51.994;5.692;2023-06-22T14:53:37;1.10;;;1.00;;
22733;SDS011;11534;51.994;5.692;2023-06-22T14:56:03;1.42;;;1.13;;
22733;SDS011;11534;51.994;5.692;2023-06-22T14:58:31;0.80;;;0.80;;
22733;SDS011;11534;51.994;5.692;2023-06-22T15:01:07;1.20;;;1.10;;
22733;SDS011;11534;51.994;5.692;2023-06-22T15:03:35;0.80;;;0.80;;
22733;SDS011;11534;51.994;5.692;2023-06-22T15:06:01;1.88;;;1.70;;
22733;SDS011;11534;51.994;5.692;2023-06-22T15:08:28;2.47;;;1.23;;
22733;SDS011;11534;51.994;5.692;2023-06-22T15:10:54;1.40;;;1.15;;
22733;SDS011;11534;51.994;5.692;2023-06-22T15:13:20;1.35;;;1.25;;
22733;SDS011;11534;51.994;5.692;2023-06-22T15:15:47;1.27;;;1.17;;
22733;SDS011;11534;51.994;5.692;2023-06-22T15:18:14;1.20;;;1.10;;
22733;SDS011;11534;51.994;5.692;2023-06-22T15:20:40;0.93;;;0.93;;
22733;SDS011;11534;51.994;5.692;2023-06-22T15:23:09;1.10;;;0.90;;
22733;SDS011;11534;51.994;5.692;2023-06-22T15:25:35;1.30;;;1.20;;
22733;SDS011;11534;51.994;5.692;2023-06-22T15:28:01;1.40;;;1.30;;
22733;SDS011;11534;51.994;5.692;2023-06-22T15:30:27;1.27;;;1.20;;
22733;SDS011;11534;51.994;5.692;2023-06-22T15:32:54;1.60;;;1.50;;
22733;SDS011;11534;51.994;5.692;2023-06-22T15:35:19;2.05;;;1.92;;
22733;SDS011;11534;51.994;5.692;2023-06-22T15:37:45;1.05;;;1.00;;
22733;SDS011;11534;51.994;5.692;2023-06-22T15:40:11;1.90;;;1.67;;